createdAt,value
2018-11-27T00:02:05.573Z,17.70
2018-11-27T00:04:33.649Z,17.03
2018-11-27T00:07:01.992Z,16.93
2018-11-27T00:09:30.357Z,17.20
2018-11-27T00:11:58.480Z,17.23
2018-11-27T00:14:26.519Z,17.53
2018-11-27T00:16:55.089Z,16.87
2018-11-27T00:19:23.155Z,16.97
2018-11-27T00:21:51.220Z,16.97
2018-11-27T00:24:19.289Z,16.53
2018-11-27T00:26:47.376Z,17.07
2018-11-27T00:29:15.479Z,16.50
2018-11-27T00:31:43.631Z,17.07
2018-11-27T00:34:11.745Z,17.80
2018-11-27T00:36:39.837Z,17.43
2018-11-27T00:39:09.385Z,16.20
2018-11-27T00:41:38.201Z,17.23
2018-11-27T00:44:06.277Z,16.87
2018-11-27T00:46:34.356Z,16.33
2018-11-27T00:49:02.450Z,16.40
2018-11-27T00:51:30.634Z,16.23
2018-11-27T00:53:58.739Z,16.40
2018-11-27T00:56:26.886Z,16.30
2018-11-27T00:58:55.053Z,16.40
2018-11-27T01:01:23.220Z,16.93
2018-11-27T01:03:51.535Z,17.00
2018-11-27T01:06:19.672Z,16.27
2018-11-27T01:08:48.185Z,16.47
2018-11-27T01:11:16.291Z,15.93
2018-11-27T01:13:44.394Z,17.30
2018-11-27T01:16:12.477Z,17.77
2018-11-27T01:18:40.641Z,16.70
2018-11-27T01:21:08.778Z,16.23
2018-11-27T01:23:36.916Z,16.53
2018-11-27T01:26:05.400Z,17.33
2018-11-27T01:28:33.546Z,15.70
2018-11-27T01:31:01.643Z,16.70
2018-11-27T01:33:30.097Z,16.60
2018-11-27T01:35:58.206Z,15.97
2018-11-27T01:38:26.312Z,16.70
2018-11-27T01:40:54.440Z,16.37
2018-11-27T01:43:22.563Z,17.57
2018-11-27T01:45:50.647Z,16.57
2018-11-27T01:48:18.763Z,16.77
2018-11-27T01:50:46.889Z,16.77
2018-11-27T01:53:14.964Z,16.67
2018-11-27T01:55:43.043Z,16.50
2018-11-27T01:58:11.181Z,16.30
2018-11-27T02:00:39.276Z,16.33
2018-11-27T02:03:07.394Z,16.63
2018-11-27T02:05:35.573Z,16.40
2018-11-27T02:08:03.687Z,16.37
2018-11-27T02:10:31.761Z,17.43
2018-11-27T02:13:01.339Z,16.50
2018-11-27T02:15:28.777Z,17.63
2018-11-27T02:17:56.935Z,15.43
2018-11-27T02:20:25.049Z,16.60
2018-11-27T02:25:30.669Z,16.03
2018-11-27T02:27:58.759Z,16.77
2018-11-27T02:30:27.634Z,16.67
2018-11-27T02:32:55.786Z,16.70
2018-11-27T02:35:24.713Z,17.37
2018-11-27T02:37:54.760Z,15.87
2018-11-27T02:40:22.849Z,16.67
2018-11-27T02:42:50.957Z,16.33
2018-11-27T02:45:21.944Z,15.33
2018-11-27T02:47:50.874Z,15.53
2018-11-27T02:50:19.949Z,16.13
2018-11-27T02:52:48.227Z,15.20
2018-11-27T02:55:19.159Z,16.70
2018-11-27T02:57:47.258Z,15.80
2018-11-27T03:00:16.316Z,17.03
2018-11-27T03:02:44.379Z,16.07
2018-11-27T03:05:13.791Z,15.83
2018-11-27T03:07:41.882Z,15.83
2018-11-27T03:10:15.771Z,15.30
2018-11-27T03:12:43.839Z,16.03
2018-11-27T03:15:13.815Z,15.83
2018-11-27T03:17:41.913Z,15.83
2018-11-27T03:20:11.018Z,15.17
2018-11-27T03:22:39.432Z,14.40
2018-11-27T03:25:10.092Z,15.47
2018-11-27T03:27:38.276Z,15.17
2018-11-27T03:30:15.166Z,15.70
2018-11-27T03:32:43.264Z,15.83
2018-11-27T03:35:13.318Z,15.27
2018-11-27T03:37:41.585Z,15.27
2018-11-27T03:40:11.234Z,14.73
2018-11-27T03:42:39.516Z,14.20
2018-11-27T03:45:09.102Z,15.07
2018-11-27T03:47:37.240Z,14.93
2018-11-27T03:50:38.266Z,15.07
2018-11-27T03:53:06.350Z,14.37
2018-11-27T03:55:34.456Z,14.87
2018-11-27T03:58:02.580Z,15.43
2018-11-27T04:00:31.387Z,15.13
2018-11-27T04:03:01.537Z,14.33
2018-11-27T04:05:29.693Z,14.97
2018-11-27T04:07:57.785Z,14.83
2018-11-27T04:10:25.921Z,14.13
2018-11-27T04:12:54.008Z,14.47
2018-11-27T04:15:22.135Z,15.53
2018-11-27T04:17:50.216Z,14.03
2018-11-27T04:20:18.362Z,14.30
2018-11-27T04:22:46.479Z,14.57
2018-11-27T04:25:16.671Z,14.53
2018-11-27T04:27:45.529Z,14.10
2018-11-27T04:30:14.616Z,13.97
2018-11-27T04:32:42.826Z,13.43
2018-11-27T04:35:12.849Z,15.00
2018-11-27T04:37:40.995Z,14.10
2018-11-27T04:40:13.111Z,13.63
2018-11-27T04:42:41.182Z,14.93
2018-11-27T04:45:16.679Z,14.30
2018-11-27T04:47:44.816Z,14.27
2018-11-27T04:50:13.792Z,14.20
2018-11-27T04:52:42.171Z,13.37
2018-11-27T04:55:13.404Z,14.27
2018-11-27T04:57:41.766Z,15.27
2018-11-27T05:00:12.323Z,14.33
2018-11-27T05:02:40.473Z,12.70
2018-11-27T05:05:08.978Z,14.53
2018-11-27T05:07:37.411Z,14.17
2018-11-27T05:10:11.369Z,15.27
2018-11-27T05:12:40.652Z,14.27
2018-11-27T05:15:19.090Z,15.17
2018-11-27T05:17:48.429Z,15.03
2018-11-27T05:20:16.449Z,14.70
2018-11-27T05:22:44.853Z,14.33
2018-11-27T05:25:15.044Z,14.57
2018-11-27T05:27:45.206Z,13.83
2018-11-27T05:30:15.173Z,15.17
2018-11-27T05:32:43.642Z,14.13
2018-11-27T05:35:13.025Z,13.70
2018-11-27T05:37:41.959Z,13.93
2018-11-27T05:40:11.777Z,14.47
2018-11-27T05:42:39.866Z,14.33
2018-11-27T05:45:12.189Z,14.00
2018-11-27T05:47:40.382Z,14.10
2018-11-27T05:50:12.772Z,14.27
2018-11-27T05:52:40.946Z,13.80
2018-11-27T05:55:09.966Z,13.70
2018-11-27T05:57:38.534Z,14.60
2018-11-27T06:00:16.931Z,14.43
2018-11-27T06:02:45.657Z,15.20
2018-11-27T06:05:15.953Z,13.43
2018-11-27T06:07:44.085Z,14.73
2018-11-27T06:10:13.255Z,14.30
2018-11-27T06:12:41.502Z,13.83
2018-11-27T06:15:13.003Z,14.20
2018-11-27T06:17:41.488Z,13.70
2018-11-27T06:20:13.142Z,14.20
2018-11-27T06:22:41.339Z,15.93
2018-11-27T06:25:14.436Z,15.63
2018-11-27T06:27:42.599Z,14.17
2018-11-27T06:30:15.946Z,15.03
2018-11-27T06:32:44.124Z,14.53
2018-11-27T06:35:13.507Z,15.37
2018-11-27T06:37:41.665Z,15.00
2018-11-27T06:40:12.405Z,16.13
2018-11-27T06:42:40.480Z,16.27
2018-11-27T06:45:10.989Z,15.57
2018-11-27T06:47:39.096Z,15.87
2018-11-27T06:50:09.041Z,16.17
2018-11-27T06:52:37.358Z,16.17
2018-11-27T06:55:07.392Z,16.10
2018-11-27T06:57:35.532Z,15.60
2018-11-27T07:00:04.665Z,14.33
2018-11-27T07:02:32.798Z,14.17
2018-11-27T07:05:00.967Z,14.50
2018-11-27T07:07:29.925Z,14.77
2018-11-27T07:09:58.023Z,13.87
2018-11-27T07:12:26.161Z,13.80
2018-11-27T07:14:54.270Z,13.80
2018-11-27T07:17:22.362Z,13.73
2018-11-27T07:19:50.546Z,12.53
2018-11-27T07:22:19.055Z,13.43
2018-11-27T07:24:47.129Z,12.63
2018-11-27T07:27:15.261Z,13.37
2018-11-27T07:29:43.445Z,14.00
2018-11-27T07:32:11.587Z,12.43
2018-11-27T07:34:39.787Z,12.27
2018-11-27T07:37:08.235Z,13.27
2018-11-27T07:39:36.347Z,11.17
2018-11-27T07:42:04.678Z,11.83
2018-11-27T07:44:32.725Z,12.10
2018-11-27T07:47:00.848Z,11.57
2018-11-27T07:49:28.930Z,11.40
2018-11-27T07:51:57.111Z,11.63
2018-11-27T07:54:25.224Z,11.40
2018-11-27T07:56:53.313Z,10.90
2018-11-27T07:59:21.419Z,13.17
2018-11-27T08:01:49.517Z,13.30
2018-11-27T08:04:17.654Z,14.70
2018-11-27T08:06:45.790Z,14.67
2018-11-27T08:09:13.867Z,12.23
2018-11-27T08:11:42.097Z,12.27
2018-11-27T08:14:10.164Z,11.70
2018-11-27T08:16:38.273Z,12.33
2018-11-27T08:19:06.385Z,11.63
2018-11-27T08:21:34.478Z,12.23
2018-11-27T08:24:02.585Z,11.70
2018-11-27T08:26:30.669Z,11.17
2018-11-27T08:28:58.779Z,11.53
2018-11-27T08:31:26.966Z,12.03
2018-11-27T08:33:55.028Z,11.77
2018-11-27T08:36:23.098Z,11.23
2018-11-27T08:38:51.182Z,11.30
2018-11-27T08:41:19.314Z,11.37
2018-11-27T08:43:47.440Z,11.43
2018-11-27T08:46:15.554Z,12.07
2018-11-27T08:48:43.659Z,11.37
2018-11-27T08:51:11.730Z,11.00
2018-11-27T08:53:39.819Z,10.23
2018-11-27T08:56:08.123Z,11.47
2018-11-27T08:58:36.338Z,9.93
2018-11-27T09:01:04.438Z,10.23
2018-11-27T09:03:32.687Z,10.00
2018-11-27T09:06:00.761Z,10.27
2018-11-27T09:08:28.848Z,9.93
2018-11-27T09:10:56.926Z,10.10
2018-11-27T09:13:25.044Z,10.80
2018-11-27T09:15:53.148Z,10.43
2018-11-27T09:18:22.875Z,9.87
2018-11-27T09:20:50.995Z,9.07
2018-11-27T09:23:19.106Z,9.50
2018-11-27T09:25:47.174Z,9.03
2018-11-27T09:28:15.251Z,9.50
2018-11-27T09:30:43.303Z,9.40
2018-11-27T09:33:11.429Z,9.67
2018-11-27T09:35:39.467Z,8.93
2018-11-27T09:38:08.135Z,9.97
2018-11-27T09:40:36.624Z,9.97
2018-11-27T09:43:05.459Z,9.30
2018-11-27T09:45:33.552Z,10.03
2018-11-27T09:48:01.768Z,10.17
2018-11-27T09:50:29.854Z,10.43
2018-11-27T09:52:57.961Z,9.83
2018-11-27T09:55:26.921Z,9.23
2018-11-27T09:57:59.150Z,8.27
2018-11-27T16:55:36.667Z,10.90
2018-11-27T16:58:22.618Z,11.60
2018-11-27T17:00:50.719Z,11.67
2018-11-27T17:03:19.034Z,12.13
2018-11-27T17:05:47.274Z,12.53
2018-11-27T17:08:16.545Z,12.23
2018-11-27T17:10:48.209Z,12.37
2018-11-27T17:13:16.404Z,12.57
2018-11-27T17:15:46.733Z,14.57
2018-11-27T17:18:15.936Z,13.77
2018-11-27T17:20:45.202Z,14.07
2018-11-27T17:23:15.555Z,13.27
2018-11-27T17:25:43.738Z,12.50
2018-11-27T17:28:16.913Z,12.87
2018-11-27T17:30:52.272Z,12.30
2018-11-27T17:33:22.769Z,13.17
2018-11-27T17:35:50.857Z,12.87
2018-11-27T17:38:19.111Z,14.30
2018-11-27T17:40:47.209Z,14.37
2018-11-27T17:43:15.277Z,11.93
2018-11-27T17:45:43.382Z,13.70
2018-11-27T17:48:11.509Z,13.03
2018-11-27T17:50:39.616Z,13.43
2018-11-27T17:53:07.684Z,12.73
2018-11-27T17:55:35.786Z,13.10
2018-11-27T17:58:04.440Z,14.00
2018-11-27T18:00:32.605Z,12.70
2018-11-27T18:03:03.568Z,14.40
2018-11-27T18:05:31.770Z,14.47
2018-11-27T18:08:00.730Z,16.37
2018-11-27T18:10:28.022Z,20.57
2018-11-27T18:12:56.188Z,15.93
2018-11-27T18:15:24.277Z,15.83
2018-11-27T18:17:52.603Z,14.40
2018-11-27T18:20:20.945Z,14.83
2018-11-27T18:22:49.102Z,15.43
2018-11-27T18:25:18.415Z,14.73
2018-11-27T18:27:47.425Z,16.10
2018-11-27T18:30:16.596Z,15.50
2018-11-27T18:32:44.712Z,15.83
2018-11-27T18:35:15.884Z,15.83
2018-11-27T18:37:44.166Z,14.53
2018-11-27T18:40:13.322Z,12.67
2018-11-27T18:42:41.629Z,12.73
2018-11-27T18:45:20.561Z,12.30
2018-11-27T18:47:48.656Z,13.77
2018-11-27T18:50:16.799Z,13.70
2018-11-27T18:52:45.076Z,14.00
2018-11-27T18:55:14.070Z,13.30
2018-11-27T18:57:42.994Z,14.27
2018-11-27T19:00:28.089Z,13.57
2018-11-27T19:02:56.186Z,13.03
2018-11-27T19:05:24.255Z,14.27
2018-11-27T19:07:53.441Z,13.60
2018-11-27T19:10:23.589Z,13.03
2018-11-27T19:12:51.725Z,13.17
2018-11-27T19:15:22.106Z,16.27
2018-11-27T19:17:52.157Z,16.77
2018-11-27T19:20:20.240Z,14.37
2018-11-27T19:22:48.373Z,14.57
2018-11-27T19:25:16.812Z,15.67
2018-11-27T19:27:44.892Z,15.33
2018-11-27T19:30:17.198Z,14.23
2018-11-27T19:32:45.390Z,15.13
2018-11-27T19:35:15.048Z,11.77
2018-11-27T19:37:43.900Z,12.10
2018-11-27T19:40:13.407Z,11.53
2018-11-27T19:42:41.792Z,11.90
2018-11-27T19:45:15.213Z,11.70
2018-11-27T19:47:43.431Z,11.83
2018-11-27T19:50:13.255Z,12.10
2018-11-27T19:52:42.264Z,11.43
2018-11-27T19:55:12.588Z,11.70
2018-11-27T19:57:40.662Z,10.93
2018-11-27T20:00:19.581Z,11.60
2018-11-27T20:02:47.769Z,12.87
2018-11-27T20:05:17.185Z,11.73
2018-11-27T20:07:45.304Z,12.50
2018-11-27T20:10:14.250Z,11.93
2018-11-27T20:12:42.401Z,12.43
2018-11-27T20:15:24.263Z,12.57
2018-11-27T20:17:53.020Z,13.13
2018-11-27T20:20:23.244Z,11.60
2018-11-27T20:22:51.459Z,11.83
2018-11-27T20:25:20.788Z,12.23
2018-11-27T20:27:48.901Z,12.10
2018-11-27T20:30:18.899Z,11.63
2018-11-27T20:32:52.574Z,12.20
2018-11-27T20:35:21.779Z,11.83
2018-11-27T20:37:50.781Z,11.07
2018-11-27T20:40:19.606Z,9.77
2018-11-27T20:42:47.841Z,10.40
2018-11-27T20:45:19.600Z,10.43
2018-11-27T20:47:48.422Z,10.23
2018-11-27T20:50:24.201Z,11.33
2018-11-27T20:52:52.282Z,11.33
2018-11-27T20:55:21.008Z,10.30
2018-11-27T20:57:52.742Z,10.83
2018-11-27T21:00:23.174Z,11.13
2018-11-27T21:03:00.151Z,11.37
2018-11-27T21:05:28.283Z,11.13
2018-11-27T21:07:56.370Z,11.30
2018-11-27T21:10:24.697Z,11.93
2018-11-27T21:12:52.789Z,12.10
2018-11-27T21:15:20.978Z,11.63
2018-11-27T21:17:49.080Z,13.30
2018-11-27T21:20:17.497Z,12.60
2018-11-27T21:22:45.576Z,12.73
2018-11-27T21:25:16.734Z,11.77
2018-11-27T21:27:46.428Z,12.97
2018-11-27T21:30:15.765Z,12.57
2018-11-27T21:32:43.946Z,11.80
2018-11-27T21:35:14.153Z,11.73
2018-11-27T21:37:42.273Z,12.87
2018-11-27T21:40:12.534Z,12.77
2018-11-27T21:42:40.604Z,12.17
2018-11-27T21:45:12.089Z,13.10
2018-11-27T21:47:40.198Z,11.93
2018-11-27T21:50:10.289Z,13.27
2018-11-27T21:52:38.430Z,12.87
2018-11-27T21:55:09.601Z,12.23
2018-11-27T21:57:37.695Z,11.67
2018-11-27T22:00:11.134Z,12.00
2018-11-27T22:02:39.244Z,11.83
2018-11-27T22:05:08.109Z,11.80
2018-11-27T22:07:36.580Z,12.00
2018-11-27T22:10:08.163Z,14.27
2018-11-27T22:12:36.348Z,16.23
2018-11-27T22:15:06.536Z,17.77
2018-11-27T22:17:34.665Z,18.83
2018-11-27T22:20:02.813Z,13.77
2018-11-27T22:22:30.955Z,15.50
2018-11-27T22:24:59.417Z,12.30
2018-11-27T22:27:27.551Z,11.83
2018-11-27T22:29:55.764Z,12.33
2018-11-27T22:32:23.871Z,11.77
2018-11-27T22:34:51.920Z,12.27
2018-11-27T22:37:20.021Z,11.53
2018-11-27T22:39:48.053Z,11.57
2018-11-27T22:42:16.569Z,12.50
2018-11-27T22:44:44.649Z,11.63
2018-11-27T22:47:12.780Z,12.03
2018-11-27T22:49:40.887Z,11.47
2018-11-27T22:52:09.028Z,12.47
2018-11-27T22:54:37.094Z,11.40
2018-11-27T22:57:05.179Z,12.40
2018-11-27T22:59:33.280Z,12.43
2018-11-27T23:02:01.519Z,11.90
2018-11-27T23:04:29.632Z,12.97
2018-11-27T23:06:57.700Z,13.20
2018-11-27T23:09:25.811Z,12.23
2018-11-27T23:11:53.896Z,11.43
2018-11-27T23:14:22.097Z,12.17
2018-11-27T23:16:50.235Z,13.17
2018-11-27T23:19:18.335Z,13.10
2018-11-27T23:21:46.398Z,12.50
2018-11-27T23:24:14.504Z,11.27
2018-11-27T23:26:42.596Z,10.73
2018-11-27T23:29:10.693Z,11.43
2018-11-27T23:31:38.786Z,12.30
2018-11-27T23:34:06.918Z,12.67
2018-11-27T23:36:35.064Z,12.90
2018-11-27T23:39:03.377Z,12.87
2018-11-27T23:41:31.446Z,12.80
2018-11-27T23:43:59.561Z,11.87
2018-11-27T23:46:27.638Z,11.83
2018-11-27T23:48:55.719Z,12.67
2018-11-27T23:51:23.802Z,12.37
2018-11-27T23:53:51.949Z,12.60
2018-11-27T23:56:20.060Z,12.60
2018-11-27T23:58:48.183Z,12.37
